VCP501 EGLL-EGPH
Flight info
| Callsign | VCP501 |
|---|---|
| Flight time | 0h 53m |
| Altitude | 34000 |
| Route | ULTIB T420 TNT UN57 POL UN601 RIBEL DCT INPIP |
| Aircraft | B738/M-SDE2E3FGHIRWXY/LB1 |
Departure
| Time | 2026-05-04 07:12 |
|---|---|
| Airport | London Heathrow Airport (EGLL) |
Arrival
| Time | 2026-05-04 08:05 |
|---|---|
| Airport | Edinburgh Airport (EGPH) |
| Time | Latitude | Longitude | Altitude | Speed | Heading |
|---|---|---|---|---|---|
| 2026-05-04 06:33 | 51.46996 | -0.44672 | 91 ft | 0 kts | 270° |
| 2026-05-04 07:01 | 51.46996 | -0.44600 | 91 ft | 2 kts | 270° |
| 2026-05-04 07:01 | 51.46997 | -0.44576 | 91 ft | 2 kts | 241° |
| 2026-05-04 07:02 | 51.47008 | -0.44559 | 91 ft | 2 kts | 209° |
| 2026-05-04 07:02 | 51.47022 | -0.44552 | 91 ft | 2 kts | 176° |
| 2026-05-04 07:02 | 51.47035 | -0.44554 | 91 ft | 0 kts | 179° |
| 2026-05-04 07:02 | 51.47037 | -0.44554 | 91 ft | 0 kts | 181° |
| 2026-05-04 07:05 | 51.47036 | -0.44554 | 91 ft | 0 kts | 181° |
| 2026-05-04 07:05 | 51.47016 | -0.44554 | 91 ft | 6 kts | 180° |
| 2026-05-04 07:05 | 51.46953 | -0.44553 | 91 ft | 11 kts | 180° |
| 2026-05-04 07:06 | 51.46798 | -0.44552 | 91 ft | 10 kts | 179° |
| 2026-05-04 07:06 | 51.46751 | -0.44488 | 91 ft | 9 kts | 95° |
| 2026-05-04 07:06 | 51.46753 | -0.44381 | 91 ft | 10 kts | 88° |
| 2026-05-04 07:07 | 51.46753 | -0.44234 | 91 ft | 14 kts | 91° |
| 2026-05-04 07:08 | 51.46492 | -0.44109 | 91 ft | 0 kts | 272° |
| 2026-05-04 07:09 | 51.46492 | -0.44110 | 91 ft | 0 kts | 272° |
| 2026-05-04 07:09 | 51.46493 | -0.44255 | 91 ft | 38 kts | 270° |
| 2026-05-04 07:09 | 51.46490 | -0.45053 | 91 ft | 102 kts | 270° |
| 2026-05-04 07:10 | 51.46484 | -0.46474 | 91 ft | 153 kts | 270° |
| 2026-05-04 07:10 | 51.46465 | -0.48371 | 363 ft | 172 kts | 271° |
| 2026-05-04 07:12 | 51.50245 | -0.62477 | 3468 ft | 249 kts | 298° |
| 2026-05-04 07:12 | 51.51057 | -0.65007 | 3936 ft | 260 kts | 300° |
| 2026-05-04 07:12 | 51.52091 | -0.67402 | 4512 ft | 265 kts | 316° |
| 2026-05-04 07:12 | 51.53676 | -0.68856 | 5129 ft | 266 kts | 348° |
| 2026-05-04 07:13 | 51.55540 | -0.68937 | 5779 ft | 268 kts | 6° |
| 2026-05-04 07:13 | 51.57382 | -0.68655 | 6406 ft | 271 kts | 4° |
| 2026-05-04 07:13 | 51.59286 | -0.68600 | 7054 ft | 275 kts | 358° |
| 2026-05-04 07:14 | 51.67120 | -0.69416 | 9698 ft | 291 kts | 356° |
| 2026-05-04 07:14 | 51.69161 | -0.69625 | 10335 ft | 296 kts | 355° |
| 2026-05-04 07:15 | 51.71270 | -0.69861 | 10691 ft | 312 kts | 355° |
| 2026-05-04 07:15 | 51.73466 | -0.70114 | 11030 ft | 328 kts | 355° |
| 2026-05-04 07:15 | 51.75801 | -0.70381 | 11359 ft | 345 kts | 355° |
| 2026-05-04 07:15 | 51.78238 | -0.70658 | 11789 ft | 357 kts | 355° |
| 2026-05-04 07:16 | 51.80737 | -0.70941 | 12408 ft | 364 kts | 355° |
| 2026-05-04 07:16 | 51.83297 | -0.71229 | 13078 ft | 369 kts | 355° |
| 2026-05-04 07:16 | 51.85847 | -0.71515 | 13753 ft | 374 kts | 355° |
| 2026-05-04 07:16 | 51.88444 | -0.71808 | 14437 ft | 379 kts | 355° |
| 2026-05-04 07:17 | 51.91092 | -0.72106 | 15127 ft | 383 kts | 354° |
| 2026-05-04 07:17 | 51.93751 | -0.72406 | 15799 ft | 388 kts | 354° |
| 2026-05-04 07:17 | 51.96471 | -0.72714 | 16491 ft | 392 kts | 354° |
| 2026-05-04 07:17 | 51.99168 | -0.73058 | 17157 ft | 395 kts | 353° |
| 2026-05-04 07:18 | 52.01895 | -0.73640 | 17815 ft | 398 kts | 348° |
| 2026-05-04 07:18 | 52.04605 | -0.74614 | 18467 ft | 401 kts | 343° |
| 2026-05-04 07:18 | 52.07292 | -0.75868 | 19122 ft | 403 kts | 341° |
| 2026-05-04 07:18 | 52.09979 | -0.77266 | 19767 ft | 406 kts | 340° |
| 2026-05-04 07:19 | 52.12666 | -0.78714 | 20393 ft | 409 kts | 339° |
| 2026-05-04 07:19 | 52.15353 | -0.80173 | 20990 ft | 411 kts | 339° |
| 2026-05-04 07:19 | 52.18095 | -0.81655 | 21466 ft | 415 kts | 340° |
| 2026-05-04 07:19 | 52.20723 | -0.83072 | 22205 ft | 419 kts | 339° |
| 2026-05-04 07:20 | 52.23469 | -0.84777 | 22872 ft | 419 kts | 335° |
| 2026-05-04 07:20 | 52.26075 | -0.86786 | 23489 ft | 421 kts | 330° |
| 2026-05-04 07:20 | 52.28663 | -0.89086 | 23966 ft | 424 kts | 328° |
| 2026-05-04 07:20 | 52.31196 | -0.91504 | 24426 ft | 427 kts | 327° |
| 2026-05-04 07:22 | 52.49298 | -1.09721 | 27707 ft | 447 kts | 327° |
| 2026-05-04 07:22 | 52.51951 | -1.12396 | 28150 ft | 449 kts | 327° |
| 2026-05-04 07:23 | 52.54612 | -1.15080 | 28585 ft | 452 kts | 327° |
| 2026-05-04 07:23 | 52.57297 | -1.17791 | 29011 ft | 455 kts | 327° |
| 2026-05-04 07:23 | 52.59979 | -1.20499 | 29461 ft | 455 kts | 327° |
| 2026-05-04 07:23 | 52.62655 | -1.23203 | 30082 ft | 451 kts | 327° |
| 2026-05-04 07:24 | 52.65305 | -1.25883 | 30625 ft | 450 kts | 327° |
| 2026-05-04 07:24 | 52.67948 | -1.28561 | 31160 ft | 448 kts | 327° |
| 2026-05-04 07:24 | 52.70608 | -1.31260 | 31710 ft | 446 kts | 327° |
| 2026-05-04 07:24 | 52.73212 | -1.33907 | 32232 ft | 444 kts | 327° |
| 2026-05-04 07:25 | 52.75842 | -1.36587 | 32753 ft | 443 kts | 327° |
| 2026-05-04 07:26 | 52.93964 | -1.55160 | 34070 ft | 435 kts | 328° |
| 2026-05-04 07:27 | 52.99089 | -1.60449 | 34060 ft | 436 kts | 328° |
| 2026-05-04 07:27 | 53.04235 | -1.65627 | 34033 ft | 434 kts | 331° |
| 2026-05-04 07:28 | 53.09718 | -1.69833 | 34029 ft | 434 kts | 338° |
| 2026-05-04 07:28 | 53.15343 | -1.73373 | 34030 ft | 433 kts | 340° |
| 2026-05-04 07:29 | 53.20995 | -1.76793 | 34025 ft | 432 kts | 340° |
| 2026-05-04 07:29 | 53.26620 | -1.80222 | 34021 ft | 430 kts | 340° |
| 2026-05-04 07:30 | 53.32214 | -1.83677 | 34019 ft | 428 kts | 340° |
| 2026-05-04 07:30 | 53.37753 | -1.87130 | 34018 ft | 427 kts | 340° |
| 2026-05-04 07:31 | 53.43306 | -1.90613 | 34019 ft | 426 kts | 340° |
| 2026-05-04 07:33 | 53.65355 | -2.04563 | 34036 ft | 422 kts | 340° |
| 2026-05-04 07:33 | 53.70863 | -2.08072 | 34040 ft | 421 kts | 341° |
| 2026-05-04 07:34 | 53.76319 | -2.11578 | 34042 ft | 421 kts | 340° |
| 2026-05-04 07:34 | 53.81721 | -2.15230 | 34038 ft | 420 kts | 339° |
| 2026-05-04 07:35 | 53.87138 | -2.18966 | 34033 ft | 420 kts | 339° |
| 2026-05-04 07:35 | 53.92538 | -2.22692 | 34032 ft | 420 kts | 340° |
| 2026-05-04 07:36 | 53.97946 | -2.26420 | 34034 ft | 420 kts | 340° |
| 2026-05-04 07:38 | 54.19531 | -2.41357 | 34059 ft | 418 kts | 340° |
| 2026-05-04 07:38 | 54.24927 | -2.45116 | 34060 ft | 417 kts | 340° |
| 2026-05-04 07:39 | 54.30287 | -2.48860 | 34058 ft | 417 kts | 340° |
| 2026-05-04 07:39 | 54.35638 | -2.52608 | 34057 ft | 416 kts | 340° |
| 2026-05-04 07:40 | 54.40981 | -2.56361 | 34057 ft | 415 kts | 340° |
| 2026-05-04 07:40 | 54.46271 | -2.60087 | 33879 ft | 412 kts | 340° |
| 2026-05-04 07:41 | 54.48912 | -2.61952 | 33498 ft | 409 kts | 340° |
| 2026-05-04 07:41 | 54.51511 | -2.63787 | 32932 ft | 409 kts | 340° |
| 2026-05-04 07:41 | 54.54172 | -2.65669 | 32240 ft | 411 kts | 339° |
| 2026-05-04 07:41 | 54.56782 | -2.67518 | 31787 ft | 406 kts | 339° |
| 2026-05-04 07:42 | 54.59346 | -2.69340 | 31323 ft | 401 kts | 339° |
| 2026-05-04 07:42 | 54.61910 | -2.71166 | 30828 ft | 397 kts | 339° |
| 2026-05-04 07:42 | 54.64466 | -2.72988 | 30337 ft | 392 kts | 339° |
| 2026-05-04 07:42 | 54.66940 | -2.74752 | 29876 ft | 386 kts | 340° |
| 2026-05-04 07:43 | 54.69397 | -2.76506 | 29420 ft | 381 kts | 340° |
| 2026-05-04 07:43 | 54.71836 | -2.78251 | 28966 ft | 375 kts | 340° |
| 2026-05-04 07:43 | 54.74213 | -2.79952 | 28523 ft | 371 kts | 339° |
| 2026-05-04 07:43 | 54.76596 | -2.81657 | 28080 ft | 377 kts | 339° |
| 2026-05-04 07:44 | 54.79044 | -2.83409 | 27611 ft | 379 kts | 339° |
| 2026-05-04 07:44 | 54.81479 | -2.85154 | 27144 ft | 375 kts | 339° |
| 2026-05-04 07:44 | 54.83845 | -2.86856 | 26692 ft | 369 kts | 339° |
| 2026-05-04 07:44 | 54.86194 | -2.88550 | 26240 ft | 365 kts | 339° |
| 2026-05-04 07:45 | 54.88528 | -2.90234 | 25945 ft | 358 kts | 338° |
| 2026-05-04 07:45 | 54.90815 | -2.91885 | 25322 ft | 362 kts | 338° |
| 2026-05-04 07:45 | 54.93155 | -2.93576 | 24666 ft | 363 kts | 338° |
| 2026-05-04 07:45 | 54.95465 | -2.95248 | 23978 ft | 362 kts | 338° |
| 2026-05-04 07:46 | 54.97801 | -2.96940 | 23456 ft | 360 kts | 338° |
| 2026-05-04 07:46 | 55.00087 | -2.98599 | 22971 ft | 357 kts | 338° |
| 2026-05-04 07:46 | 55.02381 | -3.00266 | 22494 ft | 355 kts | 338° |
| 2026-05-04 07:46 | 55.04664 | -3.01926 | 22036 ft | 356 kts | 337° |
| 2026-05-04 07:47 | 55.06930 | -3.03577 | 21576 ft | 353 kts | 337° |
| 2026-05-04 07:47 | 55.09205 | -3.05235 | 21132 ft | 348 kts | 337° |
| 2026-05-04 07:47 | 55.11415 | -3.06848 | 20698 ft | 343 kts | 337° |
| 2026-05-04 07:49 | 55.26900 | -3.10132 | 17066 ft | 314 kts | 11° |
| 2026-05-04 07:49 | 55.29010 | -3.09292 | 16501 ft | 310 kts | 9° |
| 2026-05-04 07:49 | 55.31100 | -3.08509 | 15918 ft | 308 kts | 9° |
| 2026-05-04 07:50 | 55.33173 | -3.07725 | 15429 ft | 305 kts | 9° |
| 2026-05-04 07:50 | 55.35231 | -3.06923 | 15198 ft | 301 kts | 10° |
| 2026-05-04 07:50 | 55.37288 | -3.06107 | 15004 ft | 305 kts | 10° |
| 2026-05-04 07:50 | 55.39365 | -3.05272 | 14635 ft | 305 kts | 10° |
| 2026-05-04 07:51 | 55.41398 | -3.04448 | 14249 ft | 303 kts | 10° |
| 2026-05-04 07:51 | 55.43438 | -3.03619 | 13862 ft | 301 kts | 10° |
| 2026-05-04 07:51 | 55.45460 | -3.02796 | 13479 ft | 299 kts | 10° |
| 2026-05-04 07:51 | 55.47483 | -3.01974 | 13090 ft | 297 kts | 10° |
| 2026-05-04 07:52 | 55.49488 | -3.01158 | 12700 ft | 295 kts | 10° |
| 2026-05-04 07:52 | 55.51477 | -3.00349 | 12315 ft | 293 kts | 10° |
| 2026-05-04 07:52 | 55.53440 | -2.99549 | 11935 ft | 291 kts | 10° |
| 2026-05-04 07:52 | 55.55412 | -2.98745 | 11551 ft | 289 kts | 10° |
| 2026-05-04 07:53 | 55.57364 | -2.97948 | 11171 ft | 287 kts | 10° |
| 2026-05-04 07:54 | 55.70473 | -2.92575 | 8828 ft | 269 kts | 10° |
| 2026-05-04 07:55 | 55.72282 | -2.91831 | 8488 ft | 267 kts | 10° |
| 2026-05-04 07:55 | 55.74088 | -2.91088 | 8146 ft | 266 kts | 10° |
| 2026-05-04 07:55 | 55.75880 | -2.90349 | 7814 ft | 264 kts | 11° |
| 2026-05-04 07:55 | 55.77641 | -2.89622 | 7564 ft | 259 kts | 11° |
| 2026-05-04 07:56 | 55.79382 | -2.88902 | 7373 ft | 253 kts | 11° |
| 2026-05-04 07:56 | 55.81058 | -2.88207 | 7198 ft | 246 kts | 10° |
| 2026-05-04 07:56 | 55.82709 | -2.87523 | 7022 ft | 239 kts | 10° |
| 2026-05-04 07:56 | 55.84322 | -2.87041 | 6838 ft | 232 kts | 359° |
| 2026-05-04 07:57 | 55.85852 | -2.87507 | 6592 ft | 224 kts | 334° |
| 2026-05-04 07:57 | 55.87223 | -2.88781 | 6319 ft | 222 kts | 328° |
| 2026-05-04 07:57 | 55.88576 | -2.90121 | 6038 ft | 221 kts | 330° |
| 2026-05-04 07:57 | 55.89939 | -2.91372 | 5769 ft | 220 kts | 331° |
| 2026-05-04 07:58 | 55.91301 | -2.92565 | 5508 ft | 219 kts | 332° |
| 2026-05-04 07:58 | 55.92673 | -2.93757 | 5241 ft | 216 kts | 332° |
| 2026-05-04 07:58 | 55.94010 | -2.94922 | 4974 ft | 214 kts | 332° |
| 2026-05-04 07:58 | 55.95330 | -2.96078 | 4716 ft | 212 kts | 332° |
| 2026-05-04 07:59 | 55.96653 | -2.97239 | 4457 ft | 210 kts | 332° |
| 2026-05-04 07:59 | 55.97958 | -2.98387 | 4203 ft | 208 kts | 332° |
| 2026-05-04 07:59 | 55.99244 | -2.99517 | 3953 ft | 207 kts | 332° |
| 2026-05-04 07:59 | 56.00510 | -3.00630 | 3811 ft | 199 kts | 332° |
| 2026-05-04 08:00 | 56.01728 | -3.01701 | 3758 ft | 195 kts | 331° |
| 2026-05-04 08:00 | 56.02943 | -3.02773 | 3719 ft | 190 kts | 331° |
| 2026-05-04 08:00 | 56.04055 | -3.03878 | 3617 ft | 178 kts | 320° |
| 2026-05-04 08:02 | 56.01912 | -3.16751 | 2685 ft | 170 kts | 240° |
| 2026-05-04 08:02 | 56.01304 | -3.18562 | 2438 ft | 168 kts | 240° |
| 2026-05-04 08:02 | 56.00707 | -3.20338 | 2200 ft | 166 kts | 240° |
| 2026-05-04 08:03 | 56.00112 | -3.22107 | 1963 ft | 165 kts | 240° |
| 2026-05-04 08:03 | 55.99539 | -3.23807 | 1756 ft | 156 kts | 240° |
| 2026-05-04 08:03 | 55.98982 | -3.25462 | 1544 ft | 149 kts | 240° |
| 2026-05-04 08:03 | 55.98449 | -3.27043 | 1283 ft | 147 kts | 240° |
| 2026-05-04 08:04 | 55.97927 | -3.28591 | 1093 ft | 146 kts | 240° |
| 2026-05-04 08:04 | 55.97407 | -3.30133 | 889 ft | 146 kts | 239° |
| 2026-05-04 08:04 | 55.96881 | -3.31686 | 685 ft | 146 kts | 239° |
| 2026-05-04 08:04 | 55.96358 | -3.33235 | 484 ft | 146 kts | 239° |
| 2026-05-04 08:05 | 55.95828 | -3.34802 | 279 ft | 147 kts | 239° |
| 2026-05-04 08:05 | 55.95303 | -3.36369 | 105 ft | 146 kts | 240° |
| 2026-05-04 08:05 | 55.94877 | -3.37610 | 98 ft | 81 kts | 239° |
| 2026-05-04 08:05 | 55.94674 | -3.38209 | 104 ft | 43 kts | 238° |
| 2026-05-04 08:06 | 55.94539 | -3.38606 | 108 ft | 34 kts | 239° |
| 2026-05-04 08:06 | 55.94436 | -3.38910 | 112 ft | 17 kts | 238° |
| 2026-05-04 08:06 | 55.94361 | -3.38944 | 113 ft | 11 kts | 150° |
| 2026-05-04 08:06 | 55.94297 | -3.38876 | 114 ft | 10 kts | 145° |
| 2026-05-04 08:08 | 55.94747 | -3.37423 | 101 ft | 27 kts | 58° |
| 2026-05-04 08:08 | 55.94836 | -3.37160 | 101 ft | 18 kts | 59° |
| 2026-05-04 08:10 | 55.94916 | -3.36507 | 102 ft | 3 kts | 148° |
| 2026-05-04 08:11 | 55.94907 | -3.36497 | 102 ft | 0 kts | 148° |